createdAt,value
2022-12-17T00:03:31.958Z,24.83
2022-12-17T00:08:38.135Z,23.92
2022-12-17T00:13:44.408Z,25.96
2022-12-17T00:18:50.713Z,27.12
2022-12-17T00:23:56.632Z,25.35
2022-12-17T00:29:02.948Z,28.43
2022-12-17T00:34:09.356Z,26.92
2022-12-17T00:39:15.243Z,26.61
2022-12-17T00:44:21.474Z,26.88
2022-12-17T00:49:27.691Z,24.75
2022-12-17T00:54:34.063Z,23.92
2022-12-17T00:59:40.282Z,23.76
2022-12-17T01:04:46.587Z,25.81
2022-12-17T01:09:52.841Z,23.61
2022-12-17T01:14:59.258Z,22.77
2022-12-17T01:20:05.539Z,23.95
2022-12-17T01:25:11.838Z,23.86
2022-12-17T01:30:18.126Z,24.88
2022-12-17T01:35:24.534Z,21.59
2022-12-17T01:40:30.763Z,21.70
2022-12-17T01:45:37.271Z,24.04
2022-12-17T01:50:43.475Z,20.93
2022-12-17T01:55:49.745Z,22.17
2022-12-17T02:00:56.191Z,21.06
2022-12-17T02:06:02.425Z,19.69
2022-12-17T02:11:08.737Z,20.47
2022-12-17T02:16:14.558Z,19.73
2022-12-17T02:21:20.733Z,21.26
2022-12-17T02:26:27.043Z,21.51
2022-12-17T02:31:33.369Z,20.28
2022-12-17T02:36:39.649Z,19.08
2022-12-17T02:41:45.905Z,18.16
2022-12-17T02:46:53.534Z,16.86
2022-12-17T02:51:59.891Z,17.22
2022-12-17T02:57:06.606Z,18.33
2022-12-17T03:02:12.945Z,17.20
2022-12-17T03:07:19.221Z,18.13
2022-12-17T03:12:38.374Z,20.26
2022-12-17T03:17:33.563Z,19.19
2022-12-17T03:22:39.753Z,18.70
2022-12-17T03:27:46.156Z,17.50
2022-12-17T03:32:52.401Z,16.38
2022-12-17T03:37:58.644Z,18.08
2022-12-17T03:43:04.943Z,17.40
2022-12-17T03:48:11.356Z,17.85
2022-12-17T03:53:17.642Z,18.79
2022-12-17T03:58:24.028Z,17.53
2022-12-17T04:03:30.345Z,17.47
2022-12-17T04:08:36.486Z,20.03
2022-12-17T04:13:42.981Z,35.06
2022-12-17T04:18:48.466Z,19.92
2022-12-17T04:23:54.759Z,18.63
2022-12-17T04:29:01.080Z,18.78
2022-12-17T04:34:07.356Z,20.06
2022-12-17T04:39:13.603Z,17.99
2022-12-17T04:44:19.853Z,18.25
2022-12-17T04:49:26.170Z,21.45
2022-12-17T04:54:33.405Z,18.24
2022-12-17T04:59:39.599Z,18.24
2022-12-17T05:04:46.146Z,17.55
2022-12-17T05:09:52.546Z,17.11
2022-12-17T05:14:58.830Z,16.29
2022-12-17T05:20:05.147Z,17.04
2022-12-17T05:25:11.495Z,15.27
2022-12-17T05:30:17.893Z,15.19
2022-12-17T05:35:24.151Z,15.57
2022-12-17T05:40:30.630Z,15.17
2022-12-17T05:45:36.817Z,14.74
2022-12-17T05:50:43.168Z,15.80
2022-12-17T05:55:49.491Z,17.02
2022-12-17T06:00:55.885Z,15.15
2022-12-17T06:06:02.096Z,14.11
2022-12-17T06:11:08.402Z,14.46
2022-12-17T06:16:14.803Z,12.99
2022-12-17T06:21:21.067Z,12.43
2022-12-17T06:26:27.382Z,14.72
2022-12-17T06:31:33.701Z,12.24
2022-12-17T06:36:39.886Z,13.00
2022-12-17T06:41:46.236Z,14.17
2022-12-17T06:46:56.653Z,13.36
2022-12-17T06:51:55.012Z,12.66
2022-12-17T06:57:01.293Z,14.18
2022-12-17T07:02:09.028Z,11.68
2022-12-17T07:07:14.369Z,11.10
2022-12-17T07:12:20.759Z,10.99
2022-12-17T07:17:27.029Z,11.24
2022-12-17T07:22:33.345Z,10.30
2022-12-17T07:27:39.512Z,10.20
2022-12-17T07:32:47.022Z,12.00
2022-12-17T07:37:53.258Z,11.57
2022-12-17T07:42:59.508Z,10.61
2022-12-17T07:48:05.753Z,11.81
2022-12-17T07:53:13.157Z,11.88
2022-12-17T07:58:19.398Z,10.99
2022-12-17T08:03:25.768Z,9.85
2022-12-17T08:08:31.948Z,8.87
2022-12-17T08:13:38.583Z,8.40
2022-12-17T08:18:44.009Z,9.19
2022-12-17T08:23:54.020Z,8.21
2022-12-17T08:28:50.984Z,8.83
2022-12-17T08:33:56.577Z,14.31
2022-12-17T08:39:04.058Z,7.97
2022-12-17T08:44:11.814Z,9.47
2022-12-17T08:49:18.034Z,9.55
2022-12-17T08:54:24.330Z,9.06
2022-12-17T08:59:31.642Z,8.80
2022-12-17T09:04:37.919Z,9.60
2022-12-17T09:09:45.900Z,10.85
2022-12-17T09:14:54.386Z,17.24
2022-12-17T09:20:00.612Z,11.27
2022-12-17T09:25:07.111Z,11.39
2022-12-17T09:30:13.311Z,9.34
2022-12-17T09:35:19.741Z,8.60
2022-12-17T09:40:25.993Z,9.08
2022-12-17T09:45:34.638Z,9.44
2022-12-17T09:50:39.881Z,8.93
2022-12-17T09:55:47.362Z,9.42
2022-12-17T10:01:00.615Z,10.08
2022-12-17T10:06:00.462Z,9.04
2022-12-17T10:11:06.715Z,11.86
2022-12-17T10:16:14.427Z,12.40
2022-12-17T10:21:20.586Z,10.40
2022-12-17T10:26:26.845Z,11.13
2022-12-17T10:31:35.413Z,9.96
2022-12-17T10:36:41.800Z,9.33
2022-12-17T10:41:48.043Z,10.16
2022-12-17T10:46:55.395Z,9.56
2022-12-17T10:52:01.512Z,9.65
2022-12-17T10:57:07.737Z,9.43
2022-12-17T11:02:14.103Z,10.18
2022-12-17T11:07:20.155Z,9.73
2022-12-17T11:12:30.485Z,10.41
2022-12-17T11:17:32.188Z,10.32
2022-12-17T11:22:38.406Z,9.83
2022-12-17T11:27:44.772Z,9.85
2022-12-17T11:32:53.985Z,9.93
2022-12-17T11:38:00.511Z,10.35
2022-12-17T11:43:09.947Z,9.15
2022-12-17T11:48:17.305Z,9.56
2022-12-17T11:53:27.944Z,10.43
2022-12-17T11:58:29.936Z,9.80
2022-12-17T12:03:39.101Z,9.56
2022-12-17T12:08:49.452Z,10.73
2022-12-17T12:15:21.817Z,12.02
2022-12-17T12:18:48.254Z,10.55
2022-12-17T12:24:16.024Z,10.54
2022-12-17T12:29:04.774Z,12.47
2022-12-17T12:34:09.210Z,11.26
2022-12-17T12:39:15.933Z,10.68
2022-12-17T12:44:22.528Z,10.26
2022-12-17T12:49:32.072Z,10.89
2022-12-17T12:54:38.432Z,11.86
2022-12-17T12:59:44.995Z,11.56
2022-12-17T13:04:53.328Z,11.24
2022-12-17T13:10:00.005Z,11.13
2022-12-17T13:15:11.866Z,11.99
2022-12-17T13:20:07.307Z,11.55
2022-12-17T13:25:24.753Z,10.83
2022-12-17T13:30:20.839Z,10.86
2022-12-17T13:35:28.433Z,10.92
2022-12-17T13:40:37.733Z,10.56
2022-12-17T13:45:48.360Z,10.28
2022-12-17T13:50:44.562Z,10.26
2022-12-17T13:55:50.898Z,10.89
2022-12-17T14:00:57.213Z,9.70
2022-12-17T14:06:03.841Z,9.92
2022-12-17T14:11:11.788Z,10.34
2022-12-17T14:16:17.230Z,9.57
2022-12-17T14:21:24.706Z,9.45
2022-12-17T14:26:31.102Z,9.56
2022-12-17T14:31:37.772Z,9.23
2022-12-17T14:36:44.403Z,9.67
2022-12-17T14:41:50.942Z,12.52
2022-12-17T14:46:57.454Z,16.94
2022-12-17T14:52:05.347Z,8.79
2022-12-17T14:57:11.700Z,11.03
2022-12-17T15:02:18.651Z,9.50
2022-12-17T15:07:26.183Z,8.68
2022-12-17T15:12:42.714Z,8.97
2022-12-17T15:17:39.271Z,8.77
2022-12-17T15:22:45.643Z,9.30
2022-12-17T15:27:55.041Z,8.80
2022-12-17T15:33:04.802Z,9.59
2022-12-17T15:38:14.730Z,9.65
2022-12-17T15:43:21.544Z,11.32
2022-12-17T15:48:29.152Z,10.56
2022-12-17T15:53:36.192Z,10.17
2022-12-17T15:58:42.615Z,11.07
2022-12-17T16:03:49.676Z,11.46
2022-12-17T16:08:56.513Z,11.28
2022-12-17T16:14:05.181Z,11.32
2022-12-17T16:19:10.229Z,10.73
2022-12-17T16:24:16.898Z,11.33
2022-12-17T16:29:23.373Z,11.66
2022-12-17T16:34:29.923Z,13.43
2022-12-17T16:39:36.884Z,10.86
2022-12-17T16:44:44.563Z,11.70
2022-12-17T16:49:53.222Z,9.84
2022-12-17T16:54:59.824Z,11.23
2022-12-17T17:00:06.423Z,11.65
2022-12-17T17:05:12.909Z,11.32
2022-12-17T17:10:19.389Z,10.61
2022-12-17T17:15:25.912Z,12.68
2022-12-17T17:20:32.645Z,10.88
2022-12-17T17:25:57.653Z,13.77
2022-12-17T17:30:46.660Z,11.30
2022-12-17T17:35:54.208Z,12.78
2022-12-17T17:41:03.363Z,11.73
2022-12-17T17:46:07.118Z,11.25
2022-12-17T17:51:12.650Z,10.93
2022-12-17T17:56:19.237Z,10.74
2022-12-17T18:01:31.017Z,11.71
2022-12-17T18:06:28.575Z,11.89
2022-12-17T18:11:37.422Z,10.92
2022-12-17T18:16:42.940Z,12.94
2022-12-17T18:21:50.640Z,12.25
2022-12-17T18:27:02.218Z,10.76
2022-12-17T18:31:58.093Z,11.16
2022-12-17T18:37:04.610Z,12.37
2022-12-17T18:42:11.288Z,10.10
2022-12-17T18:47:20.750Z,10.96
2022-12-17T18:52:26.387Z,10.66
2022-12-17T18:59:08.038Z,11.50
2022-12-17T19:02:42.918Z,11.07
2022-12-17T19:07:59.466Z,11.88
2022-12-17T19:13:08.061Z,11.01
2022-12-17T19:18:04.314Z,10.10
2022-12-17T19:23:10.626Z,10.64
2022-12-17T19:28:18.352Z,11.09
2022-12-17T19:33:24.944Z,12.39
2022-12-17T19:38:32.906Z,13.56
2022-12-17T19:43:39.535Z,12.66
2022-12-17T19:48:48.644Z,10.84
2022-12-17T19:53:55.450Z,10.75
2022-12-17T19:59:03.347Z,11.02
2022-12-17T20:04:10.031Z,12.34
2022-12-17T20:09:16.548Z,12.44
2022-12-17T20:14:24.257Z,14.74
2022-12-17T20:19:30.444Z,11.81
2022-12-17T20:24:37.305Z,12.19
2022-12-17T20:29:43.562Z,11.68
2022-12-17T20:34:51.565Z,12.04
2022-12-17T20:39:57.880Z,11.17
2022-12-17T20:45:04.442Z,11.45
2022-12-17T20:50:14.351Z,11.71
2022-12-17T20:55:20.905Z,13.65
2022-12-17T21:00:28.372Z,14.05
2022-12-17T21:05:35.304Z,14.07
2022-12-17T21:10:45.464Z,14.32
2022-12-17T21:15:45.569Z,12.25
2022-12-17T21:20:51.461Z,12.49
2022-12-17T21:25:57.820Z,11.55
2022-12-17T21:31:25.757Z,10.96
2022-12-17T21:36:11.930Z,11.50
2022-12-17T21:41:22.285Z,10.25
2022-12-17T21:46:19.783Z,10.75
2022-12-17T21:51:26.152Z,10.92
2022-12-17T21:56:36.809Z,10.67
2022-12-17T22:01:41.316Z,10.49
2022-12-17T22:06:55.150Z,10.41
2022-12-17T22:11:54.059Z,9.58
2022-12-17T22:17:02.252Z,18.21
2022-12-17T22:22:08.552Z,10.50
2022-12-17T22:27:15.128Z,10.94
2022-12-17T22:32:21.778Z,10.66
2022-12-17T22:39:04.765Z,10.61
2022-12-17T22:44:43.836Z,9.76
2022-12-17T22:47:45.956Z,10.59
2022-12-17T22:52:52.370Z,9.97
2022-12-17T22:57:59.156Z,10.69
2022-12-17T23:03:05.442Z,9.83
2022-12-17T23:08:11.780Z,10.03
2022-12-17T23:13:18.047Z,10.40
2022-12-17T23:18:24.365Z,9.48
2022-12-17T23:23:30.625Z,10.29
2022-12-17T23:28:37.076Z,10.15
2022-12-17T23:33:43.343Z,10.40
2022-12-17T23:38:51.435Z,9.15
2022-12-17T23:43:57.698Z,10.49
2022-12-17T23:49:04.945Z,10.82
2022-12-17T23:54:11.291Z,12.45
2022-12-17T23:59:20.701Z,11.96
